VAM | Vabird-VBD

Virtual Vabird! Aerolínea Virtual de habla hispana, desde 2011




 INFORMACIÓN METAR y TAF
METAR FOR ESSA
ADDS - METARS form results

(1444 UTC 08 March 2021)
Data provider http://aviationweather.gov/metar/data/
 
METAR text: ESSA 081420Z 28009KT 250V320 CAVOK 02/M14 Q1019 R01L/19//95 R08/19//95 R01R/15//95 NOSIG
Conditions at: ESSA (STOCKHOLM/ARLAND, SE) observed 1420 UTC 08 March 2021
Temperature: 2.0°C (36°F)
Dewpoint: -14.0°C ( 7°F) [RH = 29%]
Pressure (altimeter): 30.09 inches Hg (1019.0 mb)
Winds: from the W (280 degrees) at 10 MPH (9 knots; 4.6 m/s)
Visibility: 6 or more miles (10+ km)
Ceiling: ceiling and visibility are OK
Clouds: unknown
Weather: no significant weather observed at this time

METAR text: ESSA 081350Z 32007KT CAVOK 02/M14 Q1019 R01L/19//95 R08/19//95 R01R/15//95 NOSIG
Conditions at: ESSA (STOCKHOLM/ARLAND, SE) observed 1350 UTC 08 March 2021
Temperature: 2.0°C (36°F)
Dewpoint: -14.0°C ( 7°F) [RH = 29%]
Pressure (altimeter): 30.09 inches Hg (1019.0 mb)
Winds: from the NW (320 degrees) at 8 MPH (7 knots; 3.6 m/s)
Visibility: 6 or more miles (10+ km)
Ceiling: ceiling and visibility are OK
Clouds: unknown
Weather: no significant weather observed at this time

Forecast for: ESSA (STOCKHOLM/ARLAND, SE)
Text: TAF ESSA 081130Z 0812/0912 34008KT CAVOK
Forecast period: 1200 UTC 08 March 2021 to 1200 UTC 09 March 2021
Forecast type: FROM: standard forecast or significant change
Winds: from the NNW (340 degrees) at 9 MPH (8 knots; 4.1 m/s)
Visibility: 6 or more miles (10+ km)
Ceiling: unknown
Clouds: missing
Weather: NSW  (no significant weather)
Text: PROB40 0911/0912 2000 SN VV012
Forecast period: 1100 to 1200 UTC 09 March 2021
Forecast type: PROBABLE: 40 percent likelihood of the following during this time
Visibility: 1.24 miles (2.00 km)
Ceiling: indefinite ceiling with vertical visibility of 1200 feet AGL
Clouds: obscured sky
Weather: SN  (moderate snow)

 MAPA DE AEROPUERTO

 INFORMACIÓN DE PISTA